sensor_id;sensor_type;location;lat;lon;timestamp;P1;durP1;ratioP1;P2;durP2;ratioP2
51901;SDS011;37929;53.218;6.548;2022-09-14T00:00:50;4.43;;;2.13;;
51901;SDS011;37929;53.218;6.548;2022-09-14T00:03:16;9.65;;;2.90;;
51901;SDS011;37929;53.218;6.548;2022-09-14T00:05:42;8.65;;;3.10;;
51901;SDS011;37929;53.218;6.548;2022-09-14T00:08:08;7.03;;;2.50;;
51901;SDS011;37929;53.218;6.548;2022-09-14T00:10:44;5.53;;;2.70;;
51901;SDS011;37929;53.218;6.548;2022-09-14T00:13:11;9.63;;;2.83;;
51901;SDS011;37929;53.218;6.548;2022-09-14T00:15:38;6.75;;;2.65;;
51901;SDS011;37929;53.218;6.548;2022-09-14T00:18:06;4.63;;;2.38;;
51901;SDS011;37929;53.218;6.548;2022-09-14T00:20:33;7.93;;;2.80;;
51901;SDS011;37929;53.218;6.548;2022-09-14T00:22:59;6.03;;;2.80;;
51901;SDS011;37929;53.218;6.548;2022-09-14T00:25:26;10.93;;;3.00;;
51901;SDS011;37929;53.218;6.548;2022-09-14T00:27:52;6.45;;;2.72;;
51901;SDS011;37929;53.218;6.548;2022-09-14T00:30:19;5.88;;;2.55;;
51901;SDS011;37929;53.218;6.548;2022-09-14T00:32:47;7.30;;;3.33;;
51901;SDS011;37929;53.218;6.548;2022-09-14T00:35:14;7.43;;;3.15;;
51901;SDS011;37929;53.218;6.548;2022-09-14T00:37:40;7.18;;;3.20;;
51901;SDS011;37929;53.218;6.548;2022-09-14T00:40:06;3.30;;;2.40;;
51901;SDS011;37929;53.218;6.548;2022-09-14T00:42:33;8.50;;;2.63;;
51901;SDS011;37929;53.218;6.548;2022-09-14T00:45:00;5.05;;;3.00;;
51901;SDS011;37929;53.218;6.548;2022-09-14T00:47:46;4.55;;;2.83;;
51901;SDS011;37929;53.218;6.548;2022-09-14T00:50:15;5.80;;;3.05;;
51901;SDS011;37929;53.218;6.548;2022-09-14T00:52:43;9.18;;;3.28;;
51901;SDS011;37929;53.218;6.548;2022-09-14T00:55:13;6.63;;;2.83;;
51901;SDS011;37929;53.218;6.548;2022-09-14T00:57:48;7.32;;;3.05;;
51901;SDS011;37929;53.218;6.548;2022-09-14T01:00:20;7.32;;;3.13;;
51901;SDS011;37929;53.218;6.548;2022-09-14T01:02:48;4.25;;;2.97;;
51901;SDS011;37929;53.218;6.548;2022-09-14T01:05:14;5.75;;;3.13;;
51901;SDS011;37929;53.218;6.548;2022-09-14T01:07:48;6.63;;;3.33;;
51901;SDS011;37929;53.218;6.548;2022-09-14T01:13:04;7.93;;;3.08;;
51901;SDS011;37929;53.218;6.548;2022-09-14T01:18:23;9.55;;;3.17;;
51901;SDS011;37929;53.218;6.548;2022-09-14T01:31:49;8.43;;;2.85;;
51901;SDS011;37929;53.218;6.548;2022-09-14T01:34:41;8.02;;;3.10;;
51901;SDS011;37929;53.218;6.548;2022-09-14T01:37:15;7.05;;;2.85;;
51901;SDS011;37929;53.218;6.548;2022-09-14T01:39:43;9.02;;;2.90;;
51901;SDS011;37929;53.218;6.548;2022-09-14T01:42:12;7.65;;;3.15;;
51901;SDS011;37929;53.218;6.548;2022-09-14T01:44:41;8.88;;;2.80;;
51901;SDS011;37929;53.218;6.548;2022-09-14T01:47:14;6.60;;;3.05;;
51901;SDS011;37929;53.218;6.548;2022-09-14T01:49:58;4.87;;;2.77;;
51901;SDS011;37929;53.218;6.548;2022-09-14T01:52:43;6.00;;;2.72;;
51901;SDS011;37929;53.218;6.548;2022-09-14T01:55:19;6.95;;;2.97;;
51901;SDS011;37929;53.218;6.548;2022-09-14T01:57:54;6.57;;;3.08;;
51901;SDS011;37929;53.218;6.548;2022-09-14T02:00:32;7.53;;;3.28;;
51901;SDS011;37929;53.218;6.548;2022-09-14T02:03:10;8.95;;;3.00;;
51901;SDS011;37929;53.218;6.548;2022-09-14T02:05:50;6.43;;;3.08;;
51901;SDS011;37929;53.218;6.548;2022-09-14T02:08:25;6.20;;;2.97;;
51901;SDS011;37929;53.218;6.548;2022-09-14T02:10:53;8.18;;;3.20;;
51901;SDS011;37929;53.218;6.548;2022-09-14T02:13:21;8.75;;;3.35;;
51901;SDS011;37929;53.218;6.548;2022-09-14T02:15:47;5.93;;;2.50;;
51901;SDS011;37929;53.218;6.548;2022-09-14T02:18:13;4.15;;;2.80;;
51901;SDS011;37929;53.218;6.548;2022-09-14T02:20:40;8.32;;;3.20;;
51901;SDS011;37929;53.218;6.548;2022-09-14T02:23:16;9.60;;;3.40;;
51901;SDS011;37929;53.218;6.548;2022-09-14T02:25:43;10.98;;;3.20;;
51901;SDS011;37929;53.218;6.548;2022-09-14T02:28:10;6.07;;;3.95;;
51901;SDS011;37929;53.218;6.548;2022-09-14T02:30:41;4.32;;;3.15;;
51901;SDS011;37929;53.218;6.548;2022-09-14T02:36:04;6.30;;;3.45;;
51901;SDS011;37929;53.218;6.548;2022-09-14T02:39:08;6.70;;;3.22;;
51901;SDS011;37929;53.218;6.548;2022-09-14T02:41:57;6.03;;;3.60;;
51901;SDS011;37929;53.218;6.548;2022-09-14T02:53:20;6.03;;;3.50;;
51901;SDS011;37929;53.218;6.548;2022-09-14T02:55:50;5.28;;;3.67;;
51901;SDS011;37929;53.218;6.548;2022-09-14T02:58:19;6.78;;;3.60;;
51901;SDS011;37929;53.218;6.548;2022-09-14T03:00:47;6.45;;;3.15;;
51901;SDS011;37929;53.218;6.548;2022-09-14T03:03:15;6.80;;;3.83;;
51901;SDS011;37929;53.218;6.548;2022-09-14T03:05:43;13.25;;;4.05;;
51901;SDS011;37929;53.218;6.548;2022-09-14T03:08:09;8.80;;;3.85;;
51901;SDS011;37929;53.218;6.548;2022-09-14T03:10:35;9.48;;;3.97;;
51901;SDS011;37929;53.218;6.548;2022-09-14T03:13:02;9.10;;;3.83;;
51901;SDS011;37929;53.218;6.548;2022-09-14T03:15:28;6.85;;;4.10;;
51901;SDS011;37929;53.218;6.548;2022-09-14T03:17:54;8.82;;;3.88;;
51901;SDS011;37929;53.218;6.548;2022-09-14T03:20:22;6.05;;;3.97;;
51901;SDS011;37929;53.218;6.548;2022-09-14T03:22:49;9.68;;;4.30;;
51901;SDS011;37929;53.218;6.548;2022-09-14T03:25:15;7.22;;;3.80;;
51901;SDS011;37929;53.218;6.548;2022-09-14T03:27:42;4.20;;;3.22;;
51901;SDS011;37929;53.218;6.548;2022-09-14T03:30:17;4.70;;;2.67;;
51901;SDS011;37929;53.218;6.548;2022-09-14T03:32:43;9.00;;;4.28;;
51901;SDS011;37929;53.218;6.548;2022-09-14T03:35:09;7.30;;;3.92;;
51901;SDS011;37929;53.218;6.548;2022-09-14T03:37:38;6.53;;;3.78;;
51901;SDS011;37929;53.218;6.548;2022-09-14T03:40:05;7.78;;;3.78;;
51901;SDS011;37929;53.218;6.548;2022-09-14T03:42:32;8.20;;;3.92;;
51901;SDS011;37929;53.218;6.548;2022-09-14T03:44:58;8.02;;;4.57;;
51901;SDS011;37929;53.218;6.548;2022-09-14T03:47:24;9.07;;;4.13;;
51901;SDS011;37929;53.218;6.548;2022-09-14T03:49:50;8.23;;;4.10;;
51901;SDS011;37929;53.218;6.548;2022-09-14T03:52:16;9.05;;;4.40;;
51901;SDS011;37929;53.218;6.548;2022-09-14T03:54:42;9.52;;;4.15;;
51901;SDS011;37929;53.218;6.548;2022-09-14T03:57:08;7.75;;;4.05;;
51901;SDS011;37929;53.218;6.548;2022-09-14T03:59:34;8.25;;;4.55;;
51901;SDS011;37929;53.218;6.548;2022-09-14T04:02:00;6.30;;;3.90;;
51901;SDS011;37929;53.218;6.548;2022-09-14T04:04:27;10.52;;;4.30;;
51901;SDS011;37929;53.218;6.548;2022-09-14T04:06:53;8.20;;;4.13;;
51901;SDS011;37929;53.218;6.548;2022-09-14T04:09:19;7.93;;;4.05;;
51901;SDS011;37929;53.218;6.548;2022-09-14T04:11:45;10.80;;;4.25;;
51901;SDS011;37929;53.218;6.548;2022-09-14T04:14:12;8.25;;;4.00;;
51901;SDS011;37929;53.218;6.548;2022-09-14T04:16:38;8.57;;;4.22;;
51901;SDS011;37929;53.218;6.548;2022-09-14T04:19:04;7.07;;;4.50;;
51901;SDS011;37929;53.218;6.548;2022-09-14T04:21:31;10.73;;;4.60;;
51901;SDS011;37929;53.218;6.548;2022-09-14T04:23:57;9.27;;;4.57;;
51901;SDS011;37929;53.218;6.548;2022-09-14T04:26:27;7.80;;;4.55;;
51901;SDS011;37929;53.218;6.548;2022-09-14T04:28:54;8.57;;;4.78;;
51901;SDS011;37929;53.218;6.548;2022-09-14T04:31:20;7.32;;;4.50;;
51901;SDS011;37929;53.218;6.548;2022-09-14T04:33:47;7.07;;;4.28;;
51901;SDS011;37929;53.218;6.548;2022-09-14T04:36:15;8.27;;;4.30;;
51901;SDS011;37929;53.218;6.548;2022-09-14T04:38:45;8.95;;;4.15;;
51901;SDS011;37929;53.218;6.548;2022-09-14T04:41:15;7.70;;;4.45;;
51901;SDS011;37929;53.218;6.548;2022-09-14T04:43:44;9.23;;;4.40;;
51901;SDS011;37929;53.218;6.548;2022-09-14T04:46:13;9.00;;;4.47;;
51901;SDS011;37929;53.218;6.548;2022-09-14T04:48:40;7.63;;;4.13;;
51901;SDS011;37929;53.218;6.548;2022-09-14T04:51:07;11.38;;;4.88;;
51901;SDS011;37929;53.218;6.548;2022-09-14T04:53:33;7.57;;;4.45;;
51901;SDS011;37929;53.218;6.548;2022-09-14T04:56:07;7.93;;;3.83;;
51901;SDS011;37929;53.218;6.548;2022-09-14T04:58:35;8.45;;;4.57;;
51901;SDS011;37929;53.218;6.548;2022-09-14T05:01:07;7.00;;;4.00;;
51901;SDS011;37929;53.218;6.548;2022-09-14T05:03:35;8.05;;;4.32;;
51901;SDS011;37929;53.218;6.548;2022-09-14T05:06:05;8.52;;;3.88;;
51901;SDS011;37929;53.218;6.548;2022-09-14T05:08:35;7.80;;;4.20;;
51901;SDS011;37929;53.218;6.548;2022-09-14T05:11:03;8.88;;;4.20;;
51901;SDS011;37929;53.218;6.548;2022-09-14T05:13:30;8.80;;;4.15;;
51901;SDS011;37929;53.218;6.548;2022-09-14T05:16:03;8.07;;;4.10;;
51901;SDS011;37929;53.218;6.548;2022-09-14T05:18:33;6.60;;;3.83;;
51901;SDS011;37929;53.218;6.548;2022-09-14T05:21:00;6.50;;;3.78;;
51901;SDS011;37929;53.218;6.548;2022-09-14T05:23:26;8.00;;;3.63;;
51901;SDS011;37929;53.218;6.548;2022-09-14T05:25:52;8.88;;;4.03;;
51901;SDS011;37929;53.218;6.548;2022-09-14T05:28:18;5.30;;;4.05;;
51901;SDS011;37929;53.218;6.548;2022-09-14T05:30:43;8.95;;;4.00;;
51901;SDS011;37929;53.218;6.548;2022-09-14T05:33:09;10.82;;;4.32;;
51901;SDS011;37929;53.218;6.548;2022-09-14T05:35:35;7.70;;;4.25;;
51901;SDS011;37929;53.218;6.548;2022-09-14T05:38:00;9.02;;;4.20;;
51901;SDS011;37929;53.218;6.548;2022-09-14T05:40:26;7.95;;;4.03;;
51901;SDS011;37929;53.218;6.548;2022-09-14T05:42:52;6.80;;;3.80;;
51901;SDS011;37929;53.218;6.548;2022-09-14T05:45:17;6.07;;;3.85;;
51901;SDS011;37929;53.218;6.548;2022-09-14T05:47:43;6.63;;;3.88;;
51901;SDS011;37929;53.218;6.548;2022-09-14T05:50:09;6.45;;;4.47;;
51901;SDS011;37929;53.218;6.548;2022-09-14T05:52:34;10.73;;;4.10;;
51901;SDS011;37929;53.218;6.548;2022-09-14T05:55:00;10.20;;;4.43;;
51901;SDS011;37929;53.218;6.548;2022-09-14T05:57:26;9.40;;;4.28;;
51901;SDS011;37929;53.218;6.548;2022-09-14T05:59:52;11.02;;;4.30;;
51901;SDS011;37929;53.218;6.548;2022-09-14T06:02:18;9.38;;;4.32;;
51901;SDS011;37929;53.218;6.548;2022-09-14T06:04:43;9.00;;;4.28;;
51901;SDS011;37929;53.218;6.548;2022-09-14T06:07:10;8.85;;;4.05;;
51901;SDS011;37929;53.218;6.548;2022-09-14T06:09:35;8.80;;;4.25;;
51901;SDS011;37929;53.218;6.548;2022-09-14T06:12:01;10.48;;;4.00;;
51901;SDS011;37929;53.218;6.548;2022-09-14T06:14:27;8.48;;;4.32;;
51901;SDS011;37929;53.218;6.548;2022-09-14T06:16:53;6.75;;;4.18;;
51901;SDS011;37929;53.218;6.548;2022-09-14T06:19:19;9.73;;;4.28;;
51901;SDS011;37929;53.218;6.548;2022-09-14T06:21:44;6.10;;;3.60;;
51901;SDS011;37929;53.218;6.548;2022-09-14T06:24:10;8.55;;;3.95;;
51901;SDS011;37929;53.218;6.548;2022-09-14T06:26:37;6.07;;;3.83;;
51901;SDS011;37929;53.218;6.548;2022-09-14T06:29:03;8.38;;;4.15;;
51901;SDS011;37929;53.218;6.548;2022-09-14T06:31:29;5.75;;;3.25;;
51901;SDS011;37929;53.218;6.548;2022-09-14T06:33:55;7.13;;;3.85;;
51901;SDS011;37929;53.218;6.548;2022-09-14T06:36:23;7.00;;;3.65;;
51901;SDS011;37929;53.218;6.548;2022-09-14T06:38:50;6.93;;;3.38;;
51901;SDS011;37929;53.218;6.548;2022-09-14T06:41:18;7.57;;;3.47;;
51901;SDS011;37929;53.218;6.548;2022-09-14T06:43:48;7.10;;;3.35;;
51901;SDS011;37929;53.218;6.548;2022-09-14T06:48:57;7.45;;;3.63;;
51901;SDS011;37929;53.218;6.548;2022-09-14T06:51:29;8.02;;;3.30;;
51901;SDS011;37929;53.218;6.548;2022-09-14T06:54:00;5.97;;;2.60;;
51901;SDS011;37929;53.218;6.548;2022-09-14T06:56:27;6.63;;;2.75;;
51901;SDS011;37929;53.218;6.548;2022-09-14T06:58:55;8.13;;;2.70;;
51901;SDS011;37929;53.218;6.548;2022-09-14T07:01:22;7.68;;;3.03;;
51901;SDS011;37929;53.218;6.548;2022-09-14T07:03:53;8.05;;;3.33;;
51901;SDS011;37929;53.218;6.548;2022-09-14T07:06:20;9.10;;;2.58;;
51901;SDS011;37929;53.218;6.548;2022-09-14T07:08:48;5.35;;;2.38;;
51901;SDS011;37929;53.218;6.548;2022-09-14T07:11:15;7.20;;;2.40;;
51901;SDS011;37929;53.218;6.548;2022-09-14T07:13:42;9.88;;;2.40;;
51901;SDS011;37929;53.218;6.548;2022-09-14T07:16:08;9.60;;;2.22;;
51901;SDS011;37929;53.218;6.548;2022-09-14T07:18:35;5.70;;;2.40;;
51901;SDS011;37929;53.218;6.548;2022-09-14T07:21:02;5.18;;;2.28;;
51901;SDS011;37929;53.218;6.548;2022-09-14T07:23:54;9.00;;;2.45;;
51901;SDS011;37929;53.218;6.548;2022-09-14T07:26:21;7.15;;;2.20;;
51901;SDS011;37929;53.218;6.548;2022-09-14T07:28:56;5.80;;;2.20;;
51901;SDS011;37929;53.218;6.548;2022-09-14T07:31:28;5.88;;;2.28;;
51901;SDS011;37929;53.218;6.548;2022-09-14T07:34:00;6.10;;;2.28;;
51901;SDS011;37929;53.218;6.548;2022-09-14T07:36:27;5.70;;;2.22;;
51901;SDS011;37929;53.218;6.548;2022-09-14T07:38:55;9.95;;;2.42;;
51901;SDS011;37929;53.218;6.548;2022-09-14T07:41:21;10.88;;;2.22;;
51901;SDS011;37929;53.218;6.548;2022-09-14T07:43:49;6.50;;;2.33;;
51901;SDS011;37929;53.218;6.548;2022-09-14T07:46:16;7.45;;;2.40;;
51901;SDS011;37929;53.218;6.548;2022-09-14T07:48:43;5.95;;;2.50;;
51901;SDS011;37929;53.218;6.548;2022-09-14T07:51:09;5.22;;;2.20;;
51901;SDS011;37929;53.218;6.548;2022-09-14T07:53:39;7.25;;;2.30;;
51901;SDS011;37929;53.218;6.548;2022-09-14T07:56:09;4.70;;;2.10;;
51901;SDS011;37929;53.218;6.548;2022-09-14T07:58:37;8.23;;;2.40;;
51901;SDS011;37929;53.218;6.548;2022-09-14T08:01:05;5.97;;;2.97;;
51901;SDS011;37929;53.218;6.548;2022-09-14T08:03:39;7.40;;;1.98;;
51901;SDS011;37929;53.218;6.548;2022-09-14T08:06:17;6.90;;;1.88;;
51901;SDS011;37929;53.218;6.548;2022-09-14T08:08:46;6.30;;;2.10;;
51901;SDS011;37929;53.218;6.548;2022-09-14T08:11:14;6.15;;;2.00;;
51901;SDS011;37929;53.218;6.548;2022-09-14T08:13:49;7.38;;;2.15;;
51901;SDS011;37929;53.218;6.548;2022-09-14T08:16:17;6.15;;;2.10;;
51901;SDS011;37929;53.218;6.548;2022-09-14T08:18:43;7.95;;;1.92;;
51901;SDS011;37929;53.218;6.548;2022-09-14T08:21:11;5.32;;;1.98;;
51901;SDS011;37929;53.218;6.548;2022-09-14T08:23:38;8.07;;;2.47;;
51901;SDS011;37929;53.218;6.548;2022-09-14T08:26:07;5.80;;;1.80;;
51901;SDS011;37929;53.218;6.548;2022-09-14T08:28:35;5.03;;;1.63;;
51901;SDS011;37929;53.218;6.548;2022-09-14T08:31:06;4.18;;;1.60;;
51901;SDS011;37929;53.218;6.548;2022-09-14T08:33:34;6.30;;;2.20;;
51901;SDS011;37929;53.218;6.548;2022-09-14T08:36:02;8.75;;;2.00;;
51901;SDS011;37929;53.218;6.548;2022-09-14T08:38:28;10.07;;;1.88;;
51901;SDS011;37929;53.218;6.548;2022-09-14T08:40:54;3.20;;;1.50;;
51901;SDS011;37929;53.218;6.548;2022-09-14T08:43:21;8.30;;;1.48;;
51901;SDS011;37929;53.218;6.548;2022-09-14T08:45:49;9.60;;;1.77;;
51901;SDS011;37929;53.218;6.548;2022-09-14T08:48:24;7.28;;;1.42;;
51901;SDS011;37929;53.218;6.548;2022-09-14T08:50:53;7.47;;;1.73;;
51901;SDS011;37929;53.218;6.548;2022-09-14T08:53:23;8.65;;;2.00;;
51901;SDS011;37929;53.218;6.548;2022-09-14T08:55:54;5.90;;;1.63;;
51901;SDS011;37929;53.218;6.548;2022-09-14T09:01:12;7.28;;;1.50;;
51901;SDS011;37929;53.218;6.548;2022-09-14T09:11:52;6.55;;;1.75;;
51901;SDS011;37929;53.218;6.548;2022-09-14T09:16:49;5.85;;;1.45;;
51901;SDS011;37929;53.218;6.548;2022-09-14T09:19:29;6.80;;;1.33;;
51901;SDS011;37929;53.218;6.548;2022-09-14T09:22:00;6.25;;;1.45;;
51901;SDS011;37929;53.218;6.548;2022-09-14T09:24:31;4.45;;;1.85;;
51901;SDS011;37929;53.218;6.548;2022-09-14T09:27:12;6.95;;;1.40;;
51901;SDS011;37929;53.218;6.548;2022-09-14T09:29:39;6.20;;;1.52;;
51901;SDS011;37929;53.218;6.548;2022-09-14T09:32:06;6.70;;;1.95;;
51901;SDS011;37929;53.218;6.548;2022-09-14T09:34:38;7.22;;;1.83;;
51901;SDS011;37929;53.218;6.548;2022-09-14T09:37:04;6.82;;;1.45;;
51901;SDS011;37929;53.218;6.548;2022-09-14T09:39:29;8.05;;;1.48;;
51901;SDS011;37929;53.218;6.548;2022-09-14T09:41:59;4.93;;;1.52;;
51901;SDS011;37929;53.218;6.548;2022-09-14T09:44:27;5.20;;;1.60;;
51901;SDS011;37929;53.218;6.548;2022-09-14T09:47:02;6.55;;;1.63;;
51901;SDS011;37929;53.218;6.548;2022-09-14T09:49:32;7.32;;;1.98;;
51901;SDS011;37929;53.218;6.548;2022-09-14T09:52:08;4.68;;;1.65;;
51901;SDS011;37929;53.218;6.548;2022-09-14T09:54:36;8.68;;;1.70;;
51901;SDS011;37929;53.218;6.548;2022-09-14T09:57:05;5.18;;;1.40;;
51901;SDS011;37929;53.218;6.548;2022-09-14T09:59:43;6.57;;;1.60;;
51901;SDS011;37929;53.218;6.548;2022-09-14T10:05:03;6.90;;;1.90;;
51901;SDS011;37929;53.218;6.548;2022-09-14T10:10:07;5.28;;;1.50;;
51901;SDS011;37929;53.218;6.548;2022-09-14T10:12:36;8.63;;;1.80;;
51901;SDS011;37929;53.218;6.548;2022-09-14T10:25:44;6.53;;;2.00;;
51901;SDS011;37929;53.218;6.548;2022-09-14T10:28:22;8.95;;;1.90;;
51901;SDS011;37929;53.218;6.548;2022-09-14T10:30:55;6.22;;;2.00;;
51901;SDS011;37929;53.218;6.548;2022-09-14T10:33:29;6.65;;;2.03;;
51901;SDS011;37929;53.218;6.548;2022-09-14T10:40:51;6.78;;;1.90;;
51901;SDS011;37929;53.218;6.548;2022-09-14T10:43:37;7.60;;;1.85;;
51901;SDS011;37929;53.218;6.548;2022-09-14T10:46:19;5.75;;;1.55;;
51901;SDS011;37929;53.218;6.548;2022-09-14T10:56:43;4.45;;;1.35;;
51901;SDS011;37929;53.218;6.548;2022-09-14T11:09:42;5.70;;;1.50;;
51901;SDS011;37929;53.218;6.548;2022-09-14T11:12:37;5.88;;;1.40;;
51901;SDS011;37929;53.218;6.548;2022-09-14T11:21:06;3.92;;;1.30;;
51901;SDS011;37929;53.218;6.548;2022-09-14T11:24:52;7.10;;;1.55;;
51901;SDS011;37929;53.218;6.548;2022-09-14T11:29:52;5.50;;;1.65;;
51901;SDS011;37929;53.218;6.548;2022-09-14T11:32:32;6.20;;;2.15;;
51901;SDS011;37929;53.218;6.548;2022-09-14T11:35:20;6.35;;;1.60;;
51901;SDS011;37929;53.218;6.548;2022-09-14T11:38:10;4.82;;;1.45;;
51901;SDS011;37929;53.218;6.548;2022-09-14T11:40:46;8.02;;;1.45;;
51901;SDS011;37929;53.218;6.548;2022-09-14T11:43:20;5.53;;;1.55;;
51901;SDS011;37929;53.218;6.548;2022-09-14T11:46:21;3.67;;;1.40;;
51901;SDS011;37929;53.218;6.548;2022-09-14T11:49:02;7.05;;;1.85;;
51901;SDS011;37929;53.218;6.548;2022-09-14T11:51:40;6.50;;;1.63;;
51901;SDS011;37929;53.218;6.548;2022-09-14T11:54:14;9.75;;;1.70;;
51901;SDS011;37929;53.218;6.548;2022-09-14T11:56:45;4.82;;;1.60;;
51901;SDS011;37929;53.218;6.548;2022-09-14T11:59:30;5.32;;;1.70;;
51901;SDS011;37929;53.218;6.548;2022-09-14T12:02:18;4.88;;;1.60;;
51901;SDS011;37929;53.218;6.548;2022-09-14T12:12:56;4.53;;;1.63;;
51901;SDS011;37929;53.218;6.548;2022-09-14T12:15:42;4.35;;;1.33;;
51901;SDS011;37929;53.218;6.548;2022-09-14T12:28:26;5.70;;;1.27;;
51901;SDS011;37929;53.218;6.548;2022-09-14T12:40:55;5.93;;;1.52;;
51901;SDS011;37929;53.218;6.548;2022-09-14T13:01:49;7.00;;;1.65;;
51901;SDS011;37929;53.218;6.548;2022-09-14T13:06:51;4.65;;;1.63;;
51901;SDS011;37929;53.218;6.548;2022-09-14T13:09:21;5.30;;;1.50;;
51901;SDS011;37929;53.218;6.548;2022-09-14T13:11:55;4.82;;;1.52;;
51901;SDS011;37929;53.218;6.548;2022-09-14T13:14:28;4.07;;;1.63;;
51901;SDS011;37929;53.218;6.548;2022-09-14T13:16:58;5.80;;;1.70;;
51901;SDS011;37929;53.218;6.548;2022-09-14T13:19:31;4.57;;;1.60;;
51901;SDS011;37929;53.218;6.548;2022-09-14T13:21:59;8.02;;;1.65;;
51901;SDS011;37929;53.218;6.548;2022-09-14T13:24:36;5.53;;;1.77;;
51901;SDS011;37929;53.218;6.548;2022-09-14T13:27:14;6.78;;;1.70;;
51901;SDS011;37929;53.218;6.548;2022-09-14T13:32:29;4.05;;;1.80;;
51901;SDS011;37929;53.218;6.548;2022-09-14T13:34:58;4.68;;;1.70;;
51901;SDS011;37929;53.218;6.548;2022-09-14T13:37:25;6.00;;;1.77;;
51901;SDS011;37929;53.218;6.548;2022-09-14T13:39:52;4.38;;;1.45;;
51901;SDS011;37929;53.218;6.548;2022-09-14T13:42:21;4.20;;;1.50;;
51901;SDS011;37929;53.218;6.548;2022-09-14T13:44:47;5.90;;;1.98;;
51901;SDS011;37929;53.218;6.548;2022-09-14T13:47:15;3.85;;;1.70;;
51901;SDS011;37929;53.218;6.548;2022-09-14T13:49:47;5.75;;;1.88;;
51901;SDS011;37929;53.218;6.548;2022-09-14T13:54:53;4.60;;;1.60;;
51901;SDS011;37929;53.218;6.548;2022-09-14T13:57:38;5.07;;;1.60;;
51901;SDS011;37929;53.218;6.548;2022-09-14T14:02:33;5.07;;;1.55;;
51901;SDS011;37929;53.218;6.548;2022-09-14T14:05:00;7.80;;;1.70;;
51901;SDS011;37929;53.218;6.548;2022-09-14T14:07:31;5.85;;;1.67;;
51901;SDS011;37929;53.218;6.548;2022-09-14T14:09:59;8.05;;;1.50;;
51901;SDS011;37929;53.218;6.548;2022-09-14T14:12:32;4.75;;;1.50;;
51901;SDS011;37929;53.218;6.548;2022-09-14T14:15:30;6.72;;;1.90;;
51901;SDS011;37929;53.218;6.548;2022-09-14T14:17:57;6.38;;;1.60;;
51901;SDS011;37929;53.218;6.548;2022-09-14T14:25:32;4.95;;;1.50;;
51901;SDS011;37929;53.218;6.548;2022-09-14T14:28:15;4.50;;;1.40;;
51901;SDS011;37929;53.218;6.548;2022-09-14T14:30:43;3.88;;;1.65;;
51901;SDS011;37929;53.218;6.548;2022-09-14T14:33:11;5.40;;;1.40;;
51901;SDS011;37929;53.218;6.548;2022-09-14T14:35:38;4.03;;;1.30;;
51901;SDS011;37929;53.218;6.548;2022-09-14T14:38:04;3.30;;;1.48;;
51901;SDS011;37929;53.218;6.548;2022-09-14T14:40:30;4.30;;;1.52;;
51901;SDS011;37929;53.218;6.548;2022-09-14T14:42:57;7.72;;;1.77;;
51901;SDS011;37929;53.218;6.548;2022-09-14T14:45:27;5.13;;;1.48;;
51901;SDS011;37929;53.218;6.548;2022-09-14T14:47:55;6.15;;;1.40;;
51901;SDS011;37929;53.218;6.548;2022-09-14T14:50:29;5.60;;;1.50;;
51901;SDS011;37929;53.218;6.548;2022-09-14T14:52:58;3.55;;;1.33;;
51901;SDS011;37929;53.218;6.548;2022-09-14T14:55:25;5.53;;;1.52;;
51901;SDS011;37929;53.218;6.548;2022-09-14T14:57:52;6.22;;;1.65;;
51901;SDS011;37929;53.218;6.548;2022-09-14T15:00:20;5.15;;;1.50;;
51901;SDS011;37929;53.218;6.548;2022-09-14T15:02:47;5.78;;;1.50;;
51901;SDS011;37929;53.218;6.548;2022-09-14T15:05:14;5.80;;;1.90;;
51901;SDS011;37929;53.218;6.548;2022-09-14T15:07:40;4.30;;;1.40;;
51901;SDS011;37929;53.218;6.548;2022-09-14T15:10:06;3.38;;;1.60;;
51901;SDS011;37929;53.218;6.548;2022-09-14T15:12:32;4.85;;;1.60;;
51901;SDS011;37929;53.218;6.548;2022-09-14T15:14:59;5.95;;;1.55;;
51901;SDS011;37929;53.218;6.548;2022-09-14T15:17:25;6.63;;;1.52;;
51901;SDS011;37929;53.218;6.548;2022-09-14T15:19:51;4.72;;;1.55;;
51901;SDS011;37929;53.218;6.548;2022-09-14T15:22:17;5.28;;;1.60;;
51901;SDS011;37929;53.218;6.548;2022-09-14T15:24:43;2.90;;;1.15;;
51901;SDS011;37929;53.218;6.548;2022-09-14T15:27:09;5.28;;;1.58;;
51901;SDS011;37929;53.218;6.548;2022-09-14T15:29:35;7.30;;;1.60;;
51901;SDS011;37929;53.218;6.548;2022-09-14T15:32:01;8.85;;;1.50;;
51901;SDS011;37929;53.218;6.548;2022-09-14T15:34:27;7.63;;;1.70;;
51901;SDS011;37929;53.218;6.548;2022-09-14T15:36:53;5.90;;;1.63;;
51901;SDS011;37929;53.218;6.548;2022-09-14T15:39:20;5.63;;;1.38;;
51901;SDS011;37929;53.218;6.548;2022-09-14T15:41:50;6.13;;;1.50;;
51901;SDS011;37929;53.218;6.548;2022-09-14T15:44:17;5.65;;;1.30;;
51901;SDS011;37929;53.218;6.548;2022-09-14T15:46:43;4.65;;;1.63;;
51901;SDS011;37929;53.218;6.548;2022-09-14T15:49:11;5.20;;;1.73;;
51901;SDS011;37929;53.218;6.548;2022-09-14T15:51:43;5.03;;;1.50;;
51901;SDS011;37929;53.218;6.548;2022-09-14T15:54:10;6.57;;;1.80;;
51901;SDS011;37929;53.218;6.548;2022-09-14T15:56:36;4.53;;;1.42;;
51901;SDS011;37929;53.218;6.548;2022-09-14T15:59:03;5.00;;;1.50;;
51901;SDS011;37929;53.218;6.548;2022-09-14T16:01:29;3.78;;;1.50;;
51901;SDS011;37929;53.218;6.548;2022-09-14T16:04:02;5.97;;;1.30;;
51901;SDS011;37929;53.218;6.548;2022-09-14T16:06:29;3.78;;;1.55;;
51901;SDS011;37929;53.218;6.548;2022-09-14T16:08:56;4.80;;;1.45;;
51901;SDS011;37929;53.218;6.548;2022-09-14T16:11:24;4.38;;;1.50;;
51901;SDS011;37929;53.218;6.548;2022-09-14T16:13:49;6.38;;;1.42;;
51901;SDS011;37929;53.218;6.548;2022-09-14T16:16:16;4.32;;;1.67;;
51901;SDS011;37929;53.218;6.548;2022-09-14T16:18:43;4.28;;;2.00;;
51901;SDS011;37929;53.218;6.548;2022-09-14T16:21:16;4.32;;;1.65;;
51901;SDS011;37929;53.218;6.548;2022-09-14T16:23:46;6.88;;;1.98;;
51901;SDS011;37929;53.218;6.548;2022-09-14T16:26:18;5.78;;;1.50;;
51901;SDS011;37929;53.218;6.548;2022-09-14T16:28:46;4.65;;;1.80;;
51901;SDS011;37929;53.218;6.548;2022-09-14T16:31:22;6.72;;;1.60;;
51901;SDS011;37929;53.218;6.548;2022-09-14T16:33:54;5.55;;;2.13;;
51901;SDS011;37929;53.218;6.548;2022-09-14T16:36:22;5.13;;;1.98;;
51901;SDS011;37929;53.218;6.548;2022-09-14T16:38:54;4.13;;;1.65;;
51901;SDS011;37929;53.218;6.548;2022-09-14T16:41:21;5.35;;;2.85;;
51901;SDS011;37929;53.218;6.548;2022-09-14T16:43:52;6.88;;;2.25;;
51901;SDS011;37929;53.218;6.548;2022-09-14T16:46:20;6.63;;;2.55;;
51901;SDS011;37929;53.218;6.548;2022-09-14T16:48:47;5.38;;;1.90;;
51901;SDS011;37929;53.218;6.548;2022-09-14T16:51:17;4.53;;;2.95;;
51901;SDS011;37929;53.218;6.548;2022-09-14T16:53:44;5.28;;;1.45;;
51901;SDS011;37929;53.218;6.548;2022-09-14T16:56:12;6.22;;;1.77;;
51901;SDS011;37929;53.218;6.548;2022-09-14T16:58:49;5.72;;;1.98;;
51901;SDS011;37929;53.218;6.548;2022-09-14T17:01:20;3.45;;;2.03;;
51901;SDS011;37929;53.218;6.548;2022-09-14T17:03:49;6.18;;;2.28;;
51901;SDS011;37929;53.218;6.548;2022-09-14T17:06:17;5.57;;;1.90;;
51901;SDS011;37929;53.218;6.548;2022-09-14T17:08:45;7.57;;;2.47;;
51901;SDS011;37929;53.218;6.548;2022-09-14T17:11:14;7.93;;;1.98;;
51901;SDS011;37929;53.218;6.548;2022-09-14T17:13:41;4.82;;;2.05;;
51901;SDS011;37929;53.218;6.548;2022-09-14T17:16:09;5.40;;;1.80;;
51901;SDS011;37929;53.218;6.548;2022-09-14T17:18:44;5.50;;;1.40;;
51901;SDS011;37929;53.218;6.548;2022-09-14T17:21:14;4.03;;;1.75;;
51901;SDS011;37929;53.218;6.548;2022-09-14T17:23:45;4.35;;;1.88;;
51901;SDS011;37929;53.218;6.548;2022-09-14T17:26:12;4.95;;;2.03;;
51901;SDS011;37929;53.218;6.548;2022-09-14T17:28:42;3.85;;;2.25;;
51901;SDS011;37929;53.218;6.548;2022-09-14T17:31:09;4.38;;;1.85;;
51901;SDS011;37929;53.218;6.548;2022-09-14T17:33:37;5.40;;;2.50;;
51901;SDS011;37929;53.218;6.548;2022-09-14T17:37:46;6.65;;;1.80;;
51901;SDS011;37929;53.218;6.548;2022-09-14T17:40:12;5.00;;;2.45;;